Time;durP1;ratioP1;P1;durP2;ratioP2;P2;SDS_P1;SDS_P2;PMS_P1;PMS_P2;Temp;Humidity;BMP_temperature;BMP_pressure;BME280_temperature;BME280_humidity;BME280_pressure;Samples;Min_cycle;Max_cycle;Signal;HPM_P1;HPM_P2
2023/10/16 00:02:22;;;;;;;2.47;1.33;;;5.00;99.90;;;;;;5108368;28;20040;-57
2023/10/16 00:04:49;;;;;;;4.22;0.80;;;5.00;99.90;;;;;;5095615;28;20044;-55
2023/10/16 00:07:22;;;;;;;4.55;1.10;;;4.90;99.90;;;;;;5110308;28;20139;-58
2023/10/16 00:09:55;;;;;;;3.80;1.20;;;4.90;99.90;;;;;;5110935;28;20406;-58
2023/10/16 00:12:22;;;;;;;3.92;0.93;;;4.90;99.90;;;;;;5102267;28;20484;-57
2023/10/16 00:14:50;;;;;;;;;;;4.90;99.90;;;;;;5104459;28;20365;-57
2023/10/16 00:17:20;;;;;;;4.05;1.00;;;4.90;99.90;;;;;;5109432;28;19919;-57
2023/10/16 00:19:47;;;;;;;1.65;1.00;;;4.90;99.90;;;;;;5111997;28;20042;-54
2023/10/16 00:22:18;;;;;;;1.70;0.70;;;4.90;99.90;;;;;;5110519;28;20044;-59
2023/10/16 00:24:46;;;;;;;1.73;0.90;;;4.90;99.90;;;;;;5098760;28;20035;-59
2023/10/16 00:27:16;;;;;;;2.00;1.20;;;4.80;99.90;;;;;;5102603;28;20382;-58
2023/10/16 00:29:44;;;;;;;1.75;1.05;;;4.90;99.90;;;;;;5103475;28;20048;-59
2023/10/16 00:32:11;;;;;;;2.10;1.00;;;4.80;99.90;;;;;;5110081;28;20039;-55
2023/10/16 00:34:39;;;;;;;1.85;0.77;;;4.80;99.90;;;;;;5101895;28;20042;-59
2023/10/16 00:37:07;;;;;;;4.05;1.35;;;4.80;99.90;;;;;;5111852;28;20035;-57
2023/10/16 00:39:35;;;;;;;3.05;0.70;;;4.70;99.90;;;;;;5100694;28;20547;-59
2023/10/16 00:42:02;;;;;;;2.03;0.88;;;4.70;99.90;;;;;;5111495;28;20058;-59
2023/10/16 00:44:38;;;;;;;3.05;0.82;;;4.70;99.90;;;;;;5111760;28;20036;-58
2023/10/16 00:47:09;;;;;;;3.60;0.93;;;4.60;99.90;;;;;;5104445;28;20036;-58
2023/10/16 00:49:38;;;;;;;2.85;0.80;;;4.60;99.90;;;;;;5093009;28;20056;-57
2023/10/16 00:52:05;;;;;;;2.50;0.90;;;4.50;99.90;;;;;;5110830;28;20381;-59
2023/10/16 00:54:38;;;;;;;3.90;0.93;;;4.50;99.90;;;;;;5111545;28;20058;-57
2023/10/16 00:57:08;;;;;;;1.85;0.70;;;4.50;99.90;;;;;;5104207;28;20051;-57
2023/10/16 00:59:35;;;;;;;3.38;0.88;;;4.40;99.90;;;;;;5110165;28;20120;-56
2023/10/16 01:02:30;;;;;;;2.03;0.90;;;4.40;99.90;;;;;;5099936;28;20039;-56
2023/10/16 01:04:52;;;;;;;5.45;1.73;;;4.40;99.90;;;;;;5101567;28;20457;-58
2023/10/16 01:07:19;;;;;;;3.00;0.82;;;4.40;99.90;;;;;;5101726;28;20447;-58
2023/10/16 01:09:50;;;;;;;3.28;1.20;;;4.40;99.90;;;;;;5111409;28;20122;-56
2023/10/16 01:12:20;;;;;;;2.55;0.95;;;4.40;99.90;;;;;;5105729;28;20039;-58
2023/10/16 01:14:47;;;;;;;2.35;0.90;;;4.30;99.90;;;;;;5106769;28;20135;-59
2023/10/16 01:17:14;;;;;;;2.90;0.90;;;4.30;99.90;;;;;;5113045;28;20040;-58
2023/10/16 01:19:43;;;;;;;2.10;1.00;;;4.20;99.90;;;;;;5115054;28;20398;-56
2023/10/16 01:22:11;;;;;;;3.92;1.05;;;4.20;99.90;;;;;;5113760;28;20109;-58
2023/10/16 01:24:43;;;;;;;2.55;0.95;;;4.20;99.90;;;;;;5108145;28;20071;-55
2023/10/16 01:27:25;;;;;;;1.75;0.95;;;4.20;99.90;;;;;;5112115;28;20043;-57
2023/10/16 01:29:53;;;;;;;3.75;1.00;;;4.10;99.90;;;;;;5110103;28;20067;-59
2023/10/16 01:32:20;;;;;;;2.05;0.70;;;4.10;99.90;;;;;;5092941;28;20048;-58
2023/10/16 01:34:47;;;;;;;4.60;0.95;;;4.10;99.90;;;;;;5103181;28;20042;-59
2023/10/16 01:37:17;;;;;;;3.55;0.98;;;4.10;99.90;;;;;;5113691;28;20040;-56
2023/10/16 01:39:48;;;;;;;2.03;0.85;;;4.00;99.90;;;;;;5104691;28;20112;-57
2023/10/16 01:42:18;;;;;;;3.78;1.05;;;4.00;99.90;;;;;;5113491;28;20488;-57
2023/10/16 01:44:51;;;;;;;1.88;1.00;;;3.90;99.90;;;;;;5110983;28;20127;-55
2023/10/16 01:47:18;;;;;;;3.75;1.30;;;3.90;99.90;;;;;;5108222;28;20036;-58
2023/10/16 01:49:49;;;;;;;3.38;0.93;;;3.90;99.90;;;;;;5104608;28;20048;-58
2023/10/16 01:52:16;;;;;;;5.00;1.40;;;3.90;99.90;;;;;;5113241;28;20616;-58
2023/10/16 01:54:48;;;;;;;5.35;1.25;;;3.90;99.90;;;;;;5110794;28;20051;-58
2023/10/16 01:57:16;;;;;;;2.85;0.93;;;3.90;99.90;;;;;;5107551;28;20096;-57
2023/10/16 01:59:44;;;;;;;2.25;0.93;;;3.90;99.90;;;;;;5111794;28;20047;-55
2023/10/16 02:02:13;;;;;;;2.78;1.17;;;4.00;99.90;;;;;;5113105;28;20122;-55
2023/10/16 02:04:41;;;;;;;3.92;1.02;;;4.00;99.90;;;;;;5112744;28;20043;-57
2023/10/16 02:07:08;;;;;;;2.25;0.80;;;4.00;99.90;;;;;;5109411;28;20039;-59
2023/10/16 02:09:38;;;;;;;1.70;0.88;;;4.00;99.90;;;;;;5114340;28;20036;-58
2023/10/16 02:12:10;;;;;;;2.10;1.00;;;4.00;99.90;;;;;;5106286;28;20036;-57
2023/10/16 02:14:40;;;;;;;4.38;1.38;;;3.90;99.90;;;;;;5114430;28;20044;-58
2023/10/16 02:17:21;;;;;;;3.38;1.05;;;3.90;99.90;;;;;;5099102;28;20046;-58
2023/10/16 02:19:48;;;;;;;4.68;0.90;;;3.90;99.90;;;;;;5108222;28;20048;-56
2023/10/16 02:22:16;;;;;;;;;;;3.90;99.90;;;;;;5099371;28;20036;-57
2023/10/16 02:24:44;;;;;;;5.30;1.33;;;3.90;99.90;;;;;;5107005;28;19919;-58
2023/10/16 02:27:14;;;;;;;;;;;3.90;99.90;;;;;;5106148;28;20128;-58
2023/10/16 02:29:45;;;;;;;1.38;0.80;;;3.90;99.90;;;;;;5113136;28;19926;-56
2023/10/16 02:32:13;;;;;;;2.88;0.95;;;3.90;99.90;;;;;;5107401;28;20051;-58
2023/10/16 02:34:41;;;;;;;;;;;3.90;99.90;;;;;;5103612;28;20139;-59
2023/10/16 02:37:13;;;;;;;1.80;0.80;;;3.90;99.90;;;;;;5112102;28;19919;-58
2023/10/16 02:39:50;;;;;;;1.75;1.10;;;3.80;99.90;;;;;;5111163;28;20722;-58
2023/10/16 02:42:17;;;;;;;4.00;1.15;;;3.80;99.90;;;;;;5109274;27;20043;-58
2023/10/16 02:44:45;;;;;;;3.83;1.05;;;3.70;99.90;;;;;;5098026;28;20044;-57
2023/10/16 02:47:25;;;;;;;2.08;0.75;;;3.70;99.90;;;;;;5105378;28;20488;-59
2023/10/16 02:49:53;;;;;;;1.38;0.90;;;3.60;99.90;;;;;;5113233;28;20043;-58
2023/10/16 02:52:20;;;;;;;4.10;1.40;;;3.60;99.90;;;;;;5100290;28;20051;-58
2023/10/16 02:54:47;;;;;;;3.25;1.05;;;3.50;99.90;;;;;;5111095;28;20043;-57
2023/10/16 02:57:14;;;;;;;2.83;1.00;;;3.50;99.90;;;;;;5111916;28;20050;-57
2023/10/16 02:59:43;;;;;;;2.28;0.77;;;3.50;99.90;;;;;;5113375;28;20126;-58
2023/10/16 03:02:23;;;;;;;4.20;1.10;;;3.50;99.90;;;;;;5099828;28;20434;-58
2023/10/16 03:04:51;;;;;;;1.38;0.70;;;3.50;99.90;;;;;;5098324;28;20053;-59
2023/10/16 03:07:20;;;;;;;4.05;0.93;;;3.50;99.90;;;;;;5113052;28;20043;-55
2023/10/16 03:09:50;;;;;;;1.13;0.80;;;3.50;99.90;;;;;;5104843;28;20124;-58
2023/10/16 03:12:19;;;;;;;5.47;1.00;;;3.50;99.90;;;;;;5097932;28;20074;-56
2023/10/16 03:15:38;;;;;;;1.45;0.82;;;3.50;99.90;;;;;;5111088;28;20412;-55
2023/10/16 03:17:34;;;;;;;1.52;1.20;;;3.60;99.90;;;;;;5100063;28;20438;-57
2023/10/16 03:20:08;;;;;;;;;;;3.60;99.90;;;;;;5110480;28;20508;-55
2023/10/16 03:22:35;;;;;;;5.07;0.90;;;3.60;99.90;;;;;;5105095;28;19924;-57
2023/10/16 03:25:12;;;;;;;3.50;1.05;;;3.60;99.90;;;;;;5110832;28;20064;-58
2023/10/16 03:27:42;;;;;;;2.08;0.90;;;3.60;99.90;;;;;;5111175;28;20050;-57
2023/10/16 03:30:09;;;;;;;1.75;1.13;;;3.60;99.90;;;;;;5112517;28;20039;-58
2023/10/16 03:32:36;;;;;;;;;;;3.70;99.90;;;;;;5112943;28;20046;-57
2023/10/16 03:35:07;;;;;;;3.53;1.05;;;3.70;99.90;;;;;;5099313;28;19920;-57
2023/10/16 03:37:35;;;;;;;3.50;1.33;;;3.70;99.90;;;;;;5112880;28;20050;-57
2023/10/16 03:40:11;;;;;;;3.80;1.50;;;3.80;99.90;;;;;;5111886;28;20051;-58
2023/10/16 03:42:40;;;;;;;2.42;1.70;;;3.80;99.90;;;;;;5112546;28;20071;-58
2023/10/16 03:45:08;;;;;;;6.63;2.60;;;3.80;99.90;;;;;;5108943;28;20035;-57
2023/10/16 03:47:35;;;;;;;5.80;3.03;;;3.80;99.90;;;;;;5112595;28;20039;-55
2023/10/16 03:50:03;;;;;;;5.32;3.20;;;3.90;99.90;;;;;;5112124;28;20055;-57
2023/10/16 03:52:30;;;;;;;3.83;2.47;;;4.00;99.90;;;;;;5111022;28;20040;-58
2023/10/16 03:54:57;;;;;;;3.80;2.10;;;3.90;99.90;;;;;;5112468;28;20047;-58
2023/10/16 03:57:24;;;;;;;6.72;3.15;;;3.90;99.90;;;;;;5112384;28;20074;-56
2023/10/16 03:59:51;;;;;;;7.00;3.40;;;3.90;99.90;;;;;;5111521;27;20442;-58
2023/10/16 04:02:23;;;;;;;5.65;3.70;;;3.90;99.90;;;;;;5112209;28;20151;-58
2023/10/16 04:04:53;;;;;;;3.97;2.50;;;3.80;99.90;;;;;;5110569;28;20065;-57
2023/10/16 04:07:22;;;;;;;4.55;2.53;;;3.80;99.90;;;;;;5112381;28;20471;-58
2023/10/16 04:09:49;;;;;;;6.85;2.53;;;3.80;99.90;;;;;;5111665;28;20069;-59
2023/10/16 04:12:23;;;;;;;7.93;4.05;;;3.70;99.90;;;;;;5106155;28;20032;-59
2023/10/16 04:14:55;;;;;;;7.15;2.10;;;3.70;99.90;;;;;;5112091;28;20079;-59
2023/10/16 04:17:26;;;;;;;2.95;1.40;;;3.60;99.90;;;;;;5111680;28;20066;-57
2023/10/16 04:19:59;;;;;;;3.17;1.00;;;3.40;99.90;;;;;;5102915;28;20036;-57
2023/10/16 04:22:27;;;;;;;3.78;1.40;;;3.30;99.90;;;;;;5101793;28;20047;-57
2023/10/16 04:24:54;;;;;;;2.70;1.15;;;3.20;99.90;;;;;;5111692;28;20054;-59
2023/10/16 04:27:33;;;;;;;2.83;1.40;;;3.20;99.90;;;;;;5098996;28;20039;-58
2023/10/16 04:33:13;;;;;;;4.43;1.42;;;3.00;99.90;;;;;;5102261;28;20048;-57
2023/10/16 04:36:49;;;;;;;4.57;1.40;;;3.00;99.90;;;;;;5102297;28;20067;-58
2023/10/16 04:38:30;;;;;;;2.72;1.30;;;2.90;99.90;;;;;;5109441;28;20039;-58
2023/10/16 04:42:49;;;;;;;3.42;1.42;;;3.00;99.90;;;;;;5108629;28;20116;-57
2023/10/16 04:46:55;;;;;;;3.47;1.00;;;3.10;99.90;;;;;;5106725;28;20042;-57
2023/10/16 04:49:16;;;;;;;2.63;1.80;;;3.10;99.90;;;;;;5106653;28;20042;-55
2023/10/16 04:51:52;;;;;;;4.53;1.77;;;3.20;99.90;;;;;;5110918;28;20395;-59
2023/10/16 04:59:58;;;;;;;2.05;1.20;;;3.10;99.90;;;;;;5114363;28;20043;-56
2023/10/16 05:02:40;;;;;;;3.80;1.30;;;3.20;99.90;;;;;;5107204;28;20059;-58
2023/10/16 05:11:23;;;;;;;5.43;2.20;;;3.10;99.90;;;;;;5107149;28;20067;-55
2023/10/16 05:13:54;;;;;;;1.45;1.13;;;3.10;99.90;;;;;;5110002;28;20043;-58
2023/10/16 05:16:30;;;;;;;5.28;1.38;;;3.00;99.90;;;;;;5109523;28;20046;-58
2023/10/16 05:19:03;;;;;;;4.70;2.00;;;2.90;99.90;;;;;;5111045;28;20040;-59
2023/10/16 06:14:13;;;;;;;11.48;2.58;;;3.30;99.90;;;;;;5103743;28;20646;-56
2023/10/16 06:16:48;;;;;;;4.43;2.30;;;3.20;99.90;;;;;;5099431;28;20051;-59
2023/10/16 06:19:15;;;;;;;8.18;3.58;;;3.20;99.90;;;;;;5113329;28;20108;-58
2023/10/16 06:21:47;;;;;;;5.72;2.45;;;3.30;99.90;;;;;;5113616;28;20504;-58
2023/10/16 06:24:28;;;;;;;10.27;3.33;;;3.30;99.90;;;;;;5104831;28;20383;-57
2023/10/16 06:26:56;;;;;;;6.63;3.17;;;3.40;99.90;;;;;;5113686;28;20105;-58
2023/10/16 06:29:34;;;;;;;11.35;3.58;;;3.40;99.90;;;;;;5110127;28;20031;-58
2023/10/16 06:32:07;;;;;;;13.43;5.13;;;3.40;99.90;;;;;;5112787;28;20043;-58
2023/10/16 06:34:35;;;;;;;8.32;3.67;;;3.50;99.90;;;;;;5113020;28;20121;-58
2023/10/16 06:37:09;;;;;;;7.30;3.30;;;3.40;99.90;;;;;;5112500;28;20035;-58
2023/10/16 06:39:36;;;;;;;5.10;3.25;;;3.40;99.90;;;;;;5106819;28;20089;-58
2023/10/16 06:42:04;;;;;;;;;;;3.60;99.90;;;;;;5113326;28;20075;-59
2023/10/16 06:44:36;;;;;;;6.55;3.10;;;3.60;99.90;;;;;;5112129;28;19927;-59
2023/10/16 06:47:03;;;;;;;5.05;3.55;;;3.70;99.90;;;;;;5111782;28;20047;-57
2023/10/16 06:49:37;;;;;;;7.05;3.55;;;3.80;99.90;;;;;;5109734;28;20092;-56
2023/10/16 06:52:05;;;;;;;7.60;3.40;;;3.90;99.90;;;;;;5112462;28;20047;-58
2023/10/16 06:54:37;;;;;;;6.72;3.38;;;4.10;99.90;;;;;;5112414;28;20436;-57
2023/10/16 06:57:13;;;;;;;6.90;3.90;;;4.20;99.90;;;;;;5108863;28;20488;-58
2023/10/16 06:59:41;;;;;;;6.57;2.90;;;4.20;99.90;;;;;;5113106;28;20043;-55
2023/10/16 07:02:19;;;;;;;7.97;3.65;;;4.20;99.90;;;;;;5112262;28;20123;-59
2023/10/16 07:04:47;;;;;;;;;;;4.10;99.90;;;;;;5113554;28;20470;-58
2023/10/16 07:07:18;;;;;;;5.65;3.13;;;4.10;99.90;;;;;;5108460;28;19976;-58
2023/10/16 07:09:48;;;;;;;6.55;3.40;;;4.20;99.90;;;;;;5112940;28;20051;-58
2023/10/16 07:12:19;;;;;;;4.82;3.20;;;4.10;99.90;;;;;;5111969;28;20047;-58
2023/10/16 07:14:55;;;;;;;7.07;3.35;;;4.00;99.90;;;;;;5106125;28;20050;-59
2023/10/16 07:17:24;;;;;;;14.40;4.07;;;4.00;99.90;;;;;;5102818;28;20051;-58
2023/10/16 07:19:58;;;;;;;16.25;6.63;;;3.90;99.90;;;;;;5112398;28;20044;-58
2023/10/16 07:22:32;;;;;;;6.03;3.70;;;3.90;99.90;;;;;;5111487;28;20093;-56
2023/10/16 07:27:58;;;;;;;7.70;4.68;;;3.80;99.90;;;;;;5102488;28;20489;-59
2023/10/16 07:30:27;;;;;;;5.50;3.60;;;3.80;99.90;;;;;;5103547;28;20156;-58
2023/10/16 07:32:55;;;;;;;8.70;3.58;;;3.70;99.90;;;;;;5103620;28;20303;-57
2023/10/16 07:35:22;;;;;;;6.10;3.90;;;3.70;99.90;;;;;;5111334;28;20049;-58
2023/10/16 07:37:52;;;;;;;10.48;4.13;;;3.70;99.90;;;;;;5111283;28;20045;-58
2023/10/16 07:40:20;;;;;;;7.75;3.58;;;3.70;99.90;;;;;;5111245;28;20404;-58
2023/10/16 07:42:52;;;;;;;6.28;4.13;;;3.70;99.90;;;;;;5105284;28;20039;-57
2023/10/16 07:45:19;;;;;;;7.20;3.95;;;3.70;99.90;;;;;;5111899;28;20082;-55
2023/10/16 07:47:48;;;;;;;7.32;4.00;;;3.80;99.90;;;;;;5111781;28;20522;-59
2023/10/16 07:50:16;;;;;;;6.68;4.05;;;3.80;99.90;;;;;;5106447;28;20108;-57
2023/10/16 07:52:43;;;;;;;6.72;4.15;;;3.80;99.90;;;;;;5111448;28;20134;-57
2023/10/16 07:55:19;;;;;;;7.40;3.97;;;3.90;99.90;;;;;;5111125;28;20093;-57
2023/10/16 07:57:49;;;;;;;6.53;4.20;;;4.00;99.90;;;;;;5108491;28;20506;-58
2023/10/16 08:00:16;;;;;;;9.98;4.25;;;4.10;99.90;;;;;;5107497;28;20089;-57
2023/10/16 08:02:45;;;;;;;7.35;3.80;;;4.10;99.90;;;;;;5110609;28;20040;-57
2023/10/16 08:05:15;;;;;;;6.85;3.78;;;4.10;99.90;;;;;;5110801;28;20625;-57
2023/10/16 08:07:52;;;;;;;5.38;3.78;;;4.20;99.90;;;;;;5111626;28;20130;-59
2023/10/16 08:10:40;;;;;;;6.30;3.90;;;4.30;99.90;;;;;;5108523;28;20051;-57
2023/10/16 08:13:11;;;;;;;14.95;7.07;;;4.50;99.90;;;;;;5102115;28;20044;-58
2023/10/16 08:15:47;;;;;;;11.52;5.45;;;4.80;99.90;;;;;;5104517;28;20118;-58
2023/10/16 08:18:14;;;;;;;20.67;7.75;;;5.00;99.90;;;;;;5110693;28;20440;-58
2023/10/16 08:21:00;;;;;;;15.07;6.47;;;5.20;99.90;;;;;;5111758;28;20154;-58
2023/10/16 08:23:38;;;;;;;9.45;4.10;;;5.40;99.90;;;;;;5103232;28;20411;-58
2023/10/16 08:26:14;;;;;;;12.52;5.68;;;5.50;99.90;;;;;;5101376;28;20479;-59
2023/10/16 08:28:47;;;;;;;6.63;3.25;;;5.70;99.90;;;;;;5111524;28;20454;-58
2023/10/16 08:31:23;;;;;;;3.47;2.70;;;5.90;99.90;;;;;;5102706;28;20051;-56
2023/10/16 08:33:59;;;;;;;7.28;3.05;;;6.00;99.90;;;;;;5110972;28;20067;-58
2023/10/16 08:36:26;;;;;;;9.88;3.13;;;6.00;99.90;;;;;;5110874;28;20271;-59
2023/10/16 08:38:54;;;;;;;;;;;6.10;99.90;;;;;;5109567;28;20053;-57
2023/10/16 08:41:31;;;;;;;6.18;3.05;;;5.90;99.90;;;;;;5109350;28;19943;-57
2023/10/16 08:44:05;;;;;;;4.63;3.15;;;5.90;99.90;;;;;;5106157;28;20046;-56
2023/10/16 08:46:44;;;;;;;6.15;3.20;;;6.00;99.90;;;;;;5110869;28;20592;-56
2023/10/16 08:49:12;;;;;;;6.45;3.10;;;6.30;99.90;;;;;;5111434;28;20047;-58
2023/10/16 08:51:39;;;;;;;4.32;3.08;;;6.40;99.90;;;;;;5109677;28;20050;-58
2023/10/16 08:54:35;;;;;;;4.95;2.50;;;6.50;99.90;;;;;;5102798;28;20040;-59
2023/10/16 08:56:55;;;;;;;6.72;2.60;;;6.50;99.90;;;;;;5104983;28;20047;-59
2023/10/16 08:59:27;;;;;;;5.25;2.63;;;6.70;99.90;;;;;;5109032;28;20043;-58
2023/10/16 09:01:55;;;;;;;5.10;2.80;;;6.80;99.90;;;;;;5105092;28;20035;-57
2023/10/16 09:04:25;;;;;;;7.57;2.35;;;6.90;99.90;;;;;;5110135;28;20488;-58
2023/10/16 09:06:52;;;;;;;3.90;2.88;;;7.00;99.90;;;;;;5111154;28;20043;-58
2023/10/16 09:09:20;;;;;;;6.70;2.72;;;7.10;99.90;;;;;;5109659;28;20122;-59
2023/10/16 09:11:49;;;;;;;4.15;2.63;;;7.20;99.90;;;;;;5110922;28;20469;-58
2023/10/16 09:14:20;;;;;;;5.05;2.65;;;7.30;99.90;;;;;;5110907;28;20046;-59
2023/10/16 09:16:51;;;;;;;7.63;2.70;;;7.50;99.90;;;;;;5109850;28;20047;-57
2023/10/16 09:19:19;;;;;;;7.18;2.47;;;7.60;99.90;;;;;;5109546;28;20074;-59
2023/10/16 09:21:52;;;;;;;10.73;2.35;;;7.50;99.90;;;;;;5110391;28;20115;-58
2023/10/16 09:24:20;;;;;;;6.15;2.40;;;7.70;99.90;;;;;;5110514;28;20074;-58
2023/10/16 09:26:47;;;;;;;3.25;1.67;;;7.90;99.90;;;;;;5111185;28;20110;-57
2023/10/16 09:29:14;;;;;;;3.45;1.70;;;7.90;99.90;;;;;;5106877;28;20146;-58
2023/10/16 09:31:43;;;;;;;5.30;2.08;;;7.80;99.90;;;;;;5102465;28;20423;-58
2023/10/16 09:34:19;;;;;;;4.70;1.92;;;7.90;99.90;;;;;;5110982;28;20134;-57
2023/10/16 09:39:46;;;;;;;7.22;1.95;;;8.20;99.90;;;;;;5111926;28;20043;-56
2023/10/16 09:42:14;;;;;;;7.28;1.75;;;8.20;99.90;;;;;;5107270;28;20471;-59
2023/10/16 09:44:44;;;;;;;4.22;1.65;;;8.30;99.90;;;;;;5113401;28;20082;-58
2023/10/16 09:47:27;;;;;;;5.05;1.95;;;8.30;99.90;;;;;;5113135;28;20036;-58
2023/10/16 09:49:59;;;;;;;2.42;1.70;;;8.30;99.90;;;;;;5107555;28;20122;-57
2023/10/16 09:52:31;;;;;;;4.72;1.50;;;8.40;99.90;;;;;;5109706;28;20048;-58
2023/10/16 09:55:05;;;;;;;3.25;1.55;;;8.50;99.90;;;;;;5114319;28;20075;-58
2023/10/16 09:57:37;;;;;;;2.63;1.60;;;8.60;99.90;;;;;;5114463;28;20036;-58
2023/10/16 10:02:54;;;;;;;3.55;1.55;;;8.90;99.90;;;;;;5106642;28;20043;-59
2023/10/16 10:05:22;;;;;;;5.35;1.83;;;9.10;99.90;;;;;;5113674;28;20067;-58
2023/10/16 10:07:58;;;;;;;5.65;1.80;;;9.30;99.90;;;;;;5112897;28;20518;-59
2023/10/16 10:13:10;;;;;;;2.30;1.55;;;9.70;99.90;;;;;;5111752;28;20093;-59
2023/10/16 10:15:42;;;;;;;5.85;1.80;;;9.90;99.90;;;;;;5113763;28;20038;-58
2023/10/16 10:20:58;;;;;;;4.32;1.10;;;10.10;99.90;;;;;;5112118;28;20051;-59
2023/10/16 10:23:26;;;;;;;2.17;1.08;;;10.30;99.90;;;;;;5110545;28;20044;-59
2023/10/16 10:25:53;;;;;;;2.80;1.20;;;10.20;99.90;;;;;;5108863;28;20058;-59
2023/10/16 10:28:29;;;;;;;1.95;1.00;;;10.20;99.90;;;;;;5101589;28;20050;-59
2023/10/16 10:31:02;;;;;;;1.63;0.90;;;10.00;99.90;;;;;;5105570;28;20043;-58
2023/10/16 10:33:55;;;;;;;3.47;1.20;;;10.00;99.90;;;;;;5112115;28;20054;-59
2023/10/16 10:36:34;;;;;;;2.47;1.40;;;9.90;99.90;;;;;;5110380;28;20043;-58
2023/10/16 10:39:23;;;;;;;2.60;1.30;;;10.00;99.90;;;;;;5098140;28;20043;-57
2023/10/16 10:42:03;;;;;;;2.58;1.00;;;10.10;99.90;;;;;;5113282;28;20028;-59
2023/10/16 10:44:43;;;;;;;3.03;1.45;;;10.10;99.90;;;;;;5113044;28;20688;-58
2023/10/16 10:47:32;;;;;;;9.70;1.90;;;10.20;99.90;;;;;;5103532;28;20412;-59
2023/10/16 10:50:00;;;;;;;2.25;1.30;;;10.20;99.90;;;;;;5113390;28;20392;-58
2023/10/16 10:52:32;;;;;;;3.45;1.08;;;10.10;99.90;;;;;;5112781;28;20071;-59
2023/10/16 10:55:00;;;;;;;3.42;0.98;;;10.10;99.90;;;;;;5111372;28;20495;-59
2023/10/16 10:57:29;;;;;;;4.57;1.10;;;10.10;99.90;;;;;;5113081;28;20032;-59
2023/10/16 11:00:22;;;;;;;4.78;0.90;;;10.00;99.90;;;;;;5112757;28;20039;-59
2023/10/16 11:02:52;;;;;;;3.92;1.40;;;10.00;99.90;;;;;;5112657;28;20044;-58
2023/10/16 11:05:23;;;;;;;3.17;1.00;;;10.10;99.90;;;;;;5104321;28;20044;-58
2023/10/16 11:10:47;;;;;;;4.28;1.38;;;10.10;99.90;;;;;;5111436;27;20075;-58
2023/10/16 11:13:17;;;;;;;3.25;1.10;;;10.20;99.90;;;;;;5112590;28;20031;-59
2023/10/16 11:15:56;;;;;;;2.25;1.30;;;10.20;99.90;;;;;;5103540;28;20040;-58
2023/10/16 11:18:26;;;;;;;2.88;1.08;;;10.20;99.90;;;;;;5112592;28;20092;-58
2023/10/16 11:20:54;;;;;;;2.92;1.30;;;10.20;99.90;;;;;;5112866;28;20465;-60
2023/10/16 11:23:31;;;;;;;3.38;1.50;;;10.20;99.90;;;;;;5112261;28;20044;-59
2023/10/16 11:25:59;;;;;;;7.75;2.00;;;10.10;99.90;;;;;;5106093;28;20568;-58
2023/10/16 11:28:31;;;;;;;5.88;1.95;;;10.00;99.90;;;;;;5107334;28;20248;-59
2023/10/16 11:31:00;;;;;;;4.93;2.10;;;9.80;99.90;;;;;;5104281;28;20077;-57
2023/10/16 11:33:34;;;;;;;3.45;2.40;;;9.80;99.90;;;;;;5111313;28;20062;-58
2023/10/16 11:36:03;;;;;;;6.13;2.70;;;9.70;99.90;;;;;;5112369;28;20039;-59
2023/10/16 11:38:34;;;;;;;4.20;2.53;;;9.70;99.90;;;;;;5110678;28;20110;-58
2023/10/16 11:41:05;;;;;;;4.25;2.80;;;9.60;99.90;;;;;;5112304;28;20071;-59
2023/10/16 11:43:38;;;;;;;6.13;2.55;;;9.60;99.90;;;;;;5110928;28;20043;-59
2023/10/16 11:46:28;;;;;;;4.97;2.60;;;9.70;99.90;;;;;;5110863;27;20109;-59
2023/10/16 11:49:03;;;;;;;5.07;2.90;;;9.80;99.90;;;;;;5101742;28;20396;-58
2023/10/16 11:51:35;;;;;;;5.50;3.03;;;10.00;99.90;;;;;;5111832;28;20043;-60
2023/10/16 11:54:02;;;;;;;3.97;2.38;;;10.30;99.90;;;;;;5111830;28;20043;-59
2023/10/16 11:56:34;;;;;;;6.88;2.47;;;10.40;99.90;;;;;;5108560;28;20040;-59
2023/10/16 11:59:03;;;;;;;5.20;3.38;;;10.40;99.90;;;;;;5104589;28;20035;-58
2023/10/16 12:01:30;;;;;;;6.05;3.25;;;10.40;99.90;;;;;;5111115;28;20028;-59
2023/10/16 12:04:22;;;;;;;6.22;3.30;;;10.40;99.90;;;;;;5106762;28;20050;-59
2023/10/16 12:06:49;;;;;;;8.32;3.17;;;10.40;99.90;;;;;;5102541;28;20130;-59
2023/10/16 12:09:19;;;;;;;5.32;3.83;;;10.50;99.90;;;;;;5111579;28;20395;-58
2023/10/16 12:11:50;;;;;;;5.53;3.33;;;10.40;99.90;;;;;;5110368;28;20040;-59
2023/10/16 12:14:18;;;;;;;9.88;3.17;;;10.40;99.90;;;;;;5108834;28;20036;-58
2023/10/16 12:16:46;;;;;;;7.35;3.00;;;10.50;99.90;;;;;;5109815;28;20082;-59
2023/10/16 12:19:17;;;;;;;8.15;3.28;;;10.60;99.90;;;;;;5111469;28;20040;-58
2023/10/16 12:21:47;;;;;;;5.68;3.10;;;10.70;99.90;;;;;;5111233;28;20133;-58
2023/10/16 12:24:16;;;;;;;5.75;3.15;;;10.80;99.90;;;;;;5105492;28;20043;-58
2023/10/16 12:26:43;;;;;;;9.95;4.07;;;10.90;99.90;;;;;;5111475;28;20116;-59
2023/10/16 12:29:11;;;;;;;5.47;3.20;;;11.00;99.90;;;;;;5109159;28;20309;-59
2023/10/16 12:31:41;;;;;;;5.28;3.28;;;11.10;99.90;;;;;;5111073;28;20031;-59
2023/10/16 12:34:12;;;;;;;8.68;3.83;;;11.20;99.90;;;;;;5110390;28;20576;-59
2023/10/16 12:36:40;;;;;;;5.85;3.72;;;11.30;99.90;;;;;;5103153;28;20044;-59
2023/10/16 12:39:16;;;;;;;6.65;3.15;;;11.50;99.90;;;;;;5111442;28;20067;-58
2023/10/16 12:41:44;;;;;;;4.72;2.95;;;11.50;99.90;;;;;;5110807;28;20035;-58
2023/10/16 12:44:11;;;;;;;8.18;3.50;;;11.60;99.90;;;;;;5111539;28;20043;-59
2023/10/16 12:46:38;;;;;;;6.55;3.15;;;11.60;99.90;;;;;;5104990;28;20567;-59
2023/10/16 12:49:08;;;;;;;5.60;3.50;;;11.60;99.90;;;;;;5111568;28;20035;-59
2023/10/16 12:51:35;;;;;;;8.75;2.90;;;11.60;99.90;;;;;;5110534;28;20043;-59
2023/10/16 12:54:04;;;;;;;5.78;2.88;;;11.60;99.90;;;;;;5106563;28;20035;-59
2023/10/16 12:56:31;;;;;;;6.00;2.80;;;11.50;99.90;;;;;;5109823;28;20139;-60
2023/10/16 12:59:03;;;;;;;6.75;3.33;;;11.50;99.90;;;;;;5110584;28;20081;-59
2023/10/16 13:01:30;;;;;;;4.90;3.13;;;11.40;99.90;;;;;;5111005;28;20036;-59
2023/10/16 13:04:15;;;;;;;6.93;3.67;;;11.40;99.90;;;;;;5106023;28;20131;-58
2023/10/16 13:06:43;;;;;;;5.20;2.97;;;11.40;99.90;;;;;;5110742;28;20039;-59
2023/10/16 13:09:15;;;;;;;4.78;3.20;;;11.30;99.90;;;;;;5107288;28;20036;-59
2023/10/16 13:11:43;;;;;;;6.45;2.97;;;11.20;99.90;;;;;;5110372;28;20043;-58
2023/10/16 13:14:11;;;;;;;5.57;3.30;;;11.30;99.90;;;;;;5113503;28;20048;-58
2023/10/16 13:16:46;;;;;;;6.43;3.17;;;11.30;99.90;;;;;;5110482;28;20040;-59
2023/10/16 13:19:13;;;;;;;6.50;3.42;;;11.20;99.90;;;;;;5113732;28;20044;-57
2023/10/16 13:21:41;;;;;;;5.97;3.30;;;11.30;99.90;;;;;;5114042;28;20035;-57
2023/10/16 13:24:10;;;;;;;7.47;3.30;;;11.20;99.90;;;;;;5113999;28;20048;-58
2023/10/16 13:26:41;;;;;;;6.57;3.40;;;11.20;99.90;;;;;;5109729;28;20123;-59
2023/10/16 13:29:10;;;;;;;5.25;3.25;;;11.20;99.90;;;;;;5102469;28;20043;-60
2023/10/16 13:31:45;;;;;;;5.43;3.35;;;11.20;99.90;;;;;;5114457;28;20032;-58
2023/10/16 13:34:15;;;;;;;9.82;3.65;;;11.10;99.90;;;;;;5114448;28;20130;-57
2023/10/16 13:37:08;;;;;;;5.75;3.88;;;11.00;99.90;;;;;;5114145;28;20044;-59
2023/10/16 13:39:38;;;;;;;5.75;3.53;;;11.00;99.90;;;;;;5110218;28;20420;-59
2023/10/16 13:42:09;;;;;;;4.78;3.53;;;11.10;99.90;;;;;;5105498;28;20050;-59
2023/10/16 13:44:36;;;;;;;5.63;2.90;;;11.10;99.90;;;;;;5114674;28;20071;-60
2023/10/16 13:47:08;;;;;;;5.97;2.67;;;11.20;99.90;;;;;;5114427;28;20046;-58
2023/10/16 13:49:40;;;;;;;11.23;2.95;;;11.30;99.90;;;;;;5111970;28;20078;-59
2023/10/16 13:52:07;;;;;;;7.32;2.88;;;11.30;99.90;;;;;;5106031;28;20459;-59
2023/10/16 13:54:54;;;;;;;4.55;2.65;;;11.30;99.90;;;;;;5114281;28;20046;-56
2023/10/16 13:57:22;;;;;;;8.30;3.35;;;11.20;99.90;;;;;;5111736;28;20110;-59
2023/10/16 13:59:48;;;;;;;;;;;11.20;99.90;;;;;;5112094;28;20039;-59
2023/10/16 14:02:16;;;;;;;5.43;3.00;;;11.20;99.90;;;;;;5108969;28;19943;-60
2023/10/16 14:04:46;;;;;;;4.40;2.80;;;11.30;99.90;;;;;;5114243;28;20055;-59
2023/10/16 14:07:19;;;;;;;7.28;2.85;;;11.20;99.90;;;;;;5113872;27;20122;-60
2023/10/16 14:09:49;;;;;;;3.70;2.60;;;11.30;99.90;;;;;;5107162;27;20399;-58
2023/10/16 14:12:17;;;;;;;9.13;3.03;;;11.30;99.90;;;;;;5113874;28;20039;-59
2023/10/16 14:14:50;;;;;;;9.63;2.85;;;11.20;99.90;;;;;;5106392;28;20070;-59
2023/10/16 14:17:18;;;;;;;4.18;2.50;;;11.20;99.90;;;;;;5112528;28;20035;-59
2023/10/16 14:19:47;;;;;;;6.45;2.85;;;11.10;99.90;;;;;;5112577;28;20045;-58
2023/10/16 14:22:15;;;;;;;4.00;2.35;;;11.10;99.90;;;;;;5113566;28;20484;-58
2023/10/16 14:24:45;;;;;;;5.07;3.00;;;11.10;99.90;;;;;;5098485;28;20456;-58
2023/10/16 14:27:13;;;;;;;4.55;2.45;;;11.10;99.90;;;;;;5105612;28;20127;-58
2023/10/16 14:29:45;;;;;;;4.93;2.42;;;11.00;99.90;;;;;;5110027;28;20047;-59
2023/10/16 14:32:13;;;;;;;6.50;2.38;;;11.00;99.90;;;;;;5113390;28;20492;-60
2023/10/16 14:34:40;;;;;;;4.57;2.92;;;11.00;99.90;;;;;;5112576;28;20040;-58
2023/10/16 14:37:07;;;;;;;5.72;2.97;;;10.90;99.90;;;;;;5113166;28;20042;-59
2023/10/16 14:39:34;;;;;;;4.43;2.70;;;10.90;99.90;;;;;;5108071;28;20081;-59
2023/10/16 14:42:05;;;;;;;6.38;2.45;;;10.90;99.90;;;;;;5113046;28;20432;-58
2023/10/16 14:44:33;;;;;;;4.60;3.08;;;11.00;99.90;;;;;;5112565;27;20078;-58